createdAt,value
2017-10-24T00:01:10.113Z,97.42
2017-10-24T00:03:37.645Z,97.32
2017-10-24T00:06:05.225Z,97.48
2017-10-24T00:08:33.655Z,97.73
2017-10-24T00:11:01.880Z,97.91
2017-10-24T00:13:29.676Z,97.82
2017-10-24T00:15:57.235Z,97.49
2017-10-24T00:18:24.767Z,97.57
2017-10-24T00:20:53.030Z,97.60
2017-10-24T00:23:20.596Z,97.54
2017-10-24T00:25:48.128Z,97.72
2017-10-24T00:28:15.718Z,98.13
2017-10-24T00:30:43.247Z,97.69
2017-10-24T00:33:10.837Z,97.69
2017-10-24T00:35:39.157Z,97.95
2017-10-24T00:38:06.740Z,98.23
2017-10-24T00:40:34.271Z,98.61
2017-10-24T00:43:01.809Z,98.38
2017-10-24T00:45:29.603Z,99.08
2017-10-24T00:47:57.152Z,99.07
2017-10-24T00:50:25.469Z,99.09
2017-10-24T00:52:53.002Z,99.30
2017-10-24T00:55:21.324Z,99.22
2017-10-24T00:57:48.860Z,99.39
2017-10-24T01:00:16.387Z,99.48
2017-10-24T01:02:43.921Z,99.47
2017-10-24T01:05:11.447Z,99.14
2017-10-24T01:07:38.979Z,99.02
2017-10-24T01:10:06.519Z,99.32
2017-10-24T01:12:34.054Z,99.50
2017-10-24T01:15:02.631Z,99.52
2017-10-24T01:17:31.120Z,99.52
2017-10-24T01:19:59.576Z,98.97
2017-10-24T01:22:27.111Z,97.64
2017-10-24T01:24:54.644Z,97.70
2017-10-24T01:27:23.107Z,97.47
2017-10-24T01:29:50.637Z,97.18
2017-10-24T01:32:18.166Z,97.02
2017-10-24T01:34:45.691Z,97.35
2017-10-24T01:37:14.171Z,96.87
2017-10-24T01:39:41.701Z,97.39
2017-10-24T01:42:10.033Z,97.40
2017-10-24T01:44:37.559Z,96.97
2017-10-24T01:47:05.947Z,97.11
2017-10-24T01:49:33.507Z,97.02
2017-10-24T01:52:01.828Z,97.59
2017-10-24T01:54:30.016Z,97.79
2017-10-24T01:56:58.337Z,97.21
2017-10-24T01:59:25.864Z,97.87
2017-10-24T02:01:53.391Z,98.34
2017-10-24T02:04:20.925Z,98.33
2017-10-24T02:06:49.351Z,98.03
2017-10-24T02:09:16.880Z,97.42
2017-10-24T02:11:44.414Z,97.71
2017-10-24T02:14:12.597Z,97.67
2017-10-24T02:16:40.128Z,97.70
2017-10-24T02:19:07.653Z,97.57
2017-10-24T02:21:35.235Z,97.36
2017-10-24T02:24:02.760Z,97.89
2017-10-24T02:26:31.770Z,97.91
2017-10-24T02:29:00.389Z,97.83
2017-10-24T02:31:28.730Z,97.83
2017-10-24T02:33:56.256Z,97.76
2017-10-24T02:36:24.565Z,97.19
2017-10-24T02:38:52.908Z,97.07
2017-10-24T02:41:20.474Z,96.75
2017-10-24T02:43:48.916Z,97.20
2017-10-24T02:46:16.461Z,96.71
2017-10-24T02:48:44.902Z,96.36
2017-10-24T02:51:12.437Z,96.28
2017-10-24T02:53:40.865Z,96.87
2017-10-24T02:56:08.409Z,97.30
2017-10-24T02:58:36.970Z,97.17
2017-10-24T03:01:04.515Z,96.44
2017-10-24T03:03:32.981Z,96.69
2017-10-24T03:06:00.952Z,96.87
2017-10-24T03:08:29.192Z,97.13
2017-10-24T03:10:56.735Z,97.27
2017-10-24T03:13:24.261Z,96.51
2017-10-24T03:15:52.573Z,97.01
2017-10-24T03:18:20.114Z,97.05
2017-10-24T03:20:48.599Z,96.90
2017-10-24T03:23:16.132Z,96.20
2017-10-24T03:25:44.608Z,97.08
2017-10-24T03:28:12.142Z,97.07
2017-10-24T03:30:40.501Z,97.51
2017-10-24T03:33:08.032Z,97.63
2017-10-24T03:35:36.529Z,97.18
2017-10-24T03:38:04.056Z,97.10
2017-10-24T03:40:32.432Z,97.03
2017-10-24T03:43:00.900Z,96.82
2017-10-24T03:45:28.430Z,96.82
2017-10-24T03:47:56.927Z,96.28
2017-10-24T03:50:25.239Z,95.32
2017-10-24T03:52:52.768Z,95.56
2017-10-24T03:55:20.304Z,95.66
2017-10-24T03:57:48.741Z,95.77
2017-10-24T04:00:19.294Z,96.02
2017-10-24T04:02:47.634Z,96.78
2017-10-24T04:05:15.204Z,96.81
2017-10-24T04:07:43.642Z,96.52
2017-10-24T04:10:11.180Z,96.51
2017-10-24T04:12:38.711Z,96.70
2017-10-24T04:15:06.236Z,95.87
2017-10-24T04:17:33.760Z,95.35
2017-10-24T04:20:01.856Z,95.00
2017-10-24T04:22:31.203Z,95.35
2017-10-24T04:24:58.737Z,95.28
2017-10-24T04:27:26.279Z,95.53
2017-10-24T04:29:53.807Z,95.78
2017-10-24T04:32:21.342Z,95.99
2017-10-24T04:34:49.688Z,95.94
2017-10-24T04:37:17.223Z,95.59
2017-10-24T04:39:44.758Z,96.14
2017-10-24T04:42:12.297Z,95.86
2017-10-24T04:44:39.843Z,95.70
2017-10-24T04:47:07.384Z,95.15
2017-10-24T04:49:35.016Z,95.86
2017-10-24T04:52:03.476Z,95.99
2017-10-24T04:54:31.731Z,96.51
2017-10-24T04:57:00.660Z,96.58
2017-10-24T04:59:28.228Z,96.95
2017-10-24T05:01:56.547Z,97.41
2017-10-24T05:04:24.079Z,97.24
2017-10-24T05:06:52.444Z,96.89
2017-10-24T05:09:19.979Z,96.77
2017-10-24T05:11:47.565Z,97.07
2017-10-24T05:14:15.107Z,96.31
2017-10-24T05:16:42.645Z,96.19
2017-10-24T05:19:11.160Z,96.90
2017-10-24T05:21:38.687Z,97.07
2017-10-24T05:24:07.129Z,96.64
2017-10-24T05:26:34.775Z,96.34
2017-10-24T05:29:02.429Z,96.99
2017-10-24T05:31:30.771Z,96.65
2017-10-24T05:33:58.307Z,96.96
2017-10-24T05:36:25.933Z,96.75
2017-10-24T05:38:53.457Z,97.07
2017-10-24T05:41:20.989Z,97.09
2017-10-24T05:43:49.419Z,97.53
2017-10-24T05:46:16.985Z,97.53
2017-10-24T05:48:44.557Z,97.36
2017-10-24T05:51:12.895Z,96.35
2017-10-24T05:53:40.425Z,97.07
2017-10-24T05:56:07.949Z,96.26
2017-10-24T05:58:36.408Z,95.78
2017-10-24T06:01:03.932Z,96.25
2017-10-24T06:03:32.389Z,95.54
2017-10-24T06:06:00.592Z,95.75
2017-10-24T06:08:28.896Z,96.15
2017-10-24T06:10:56.434Z,95.89
2017-10-24T06:13:24.012Z,96.93
2017-10-24T06:15:51.546Z,96.67
2017-10-24T06:18:19.168Z,95.99
2017-10-24T06:20:46.697Z,95.99
2017-10-24T06:23:14.231Z,95.67
2017-10-24T06:25:41.761Z,96.08
2017-10-24T06:28:10.124Z,96.70
2017-10-24T06:30:37.663Z,97.06
2017-10-24T06:33:06.177Z,96.60
2017-10-24T06:35:33.760Z,96.96
2017-10-24T06:38:02.192Z,97.10
2017-10-24T06:40:30.607Z,96.55
2017-10-24T06:42:58.976Z,96.09
2017-10-24T06:45:27.283Z,95.83
2017-10-24T06:47:54.849Z,95.87
2017-10-24T06:50:23.168Z,95.04
2017-10-24T06:52:50.748Z,96.27
2017-10-24T06:55:18.313Z,95.93
2017-10-24T06:57:46.784Z,96.06
2017-10-24T07:00:15.128Z,95.39
2017-10-24T07:02:42.665Z,95.46
2017-10-24T07:05:10.192Z,97.03
2017-10-24T07:07:38.644Z,96.78
2017-10-24T07:10:06.225Z,97.07
2017-10-24T07:12:34.686Z,95.65
2017-10-24T07:15:02.922Z,96.15
2017-10-24T07:17:30.716Z,95.29
2017-10-24T07:19:58.249Z,95.94
2017-10-24T07:22:28.449Z,95.85
2017-10-24T07:24:55.979Z,94.46
2017-10-24T07:27:24.332Z,94.65
2017-10-24T07:29:52.180Z,94.58
2017-10-24T07:32:19.815Z,95.59
2017-10-24T07:34:47.363Z,93.99
2017-10-24T07:37:14.896Z,94.73
2017-10-24T07:39:42.432Z,95.57
2017-10-24T07:42:09.987Z,95.99
2017-10-24T07:44:37.609Z,96.23
2017-10-24T07:47:05.268Z,95.91
2017-10-24T07:49:32.795Z,95.32
2017-10-24T07:52:00.325Z,95.65
2017-10-24T07:54:28.627Z,95.69
2017-10-24T07:56:56.227Z,94.88
2017-10-24T07:59:24.799Z,94.79
2017-10-24T08:01:52.984Z,94.79
2017-10-24T08:04:20.644Z,93.40
2017-10-24T08:06:49.032Z,93.77
2017-10-24T08:09:16.611Z,94.39
2017-10-24T08:11:44.924Z,93.35
2017-10-24T08:14:12.465Z,94.03
2017-10-24T08:16:41.016Z,94.86
2017-10-24T08:19:08.681Z,95.16
2017-10-24T08:21:36.247Z,94.50
2017-10-24T08:24:04.721Z,95.03
2017-10-24T08:26:32.377Z,93.11
2017-10-24T08:29:00.721Z,92.32
2017-10-24T08:31:28.251Z,92.60
2017-10-24T08:33:56.714Z,93.86
2017-10-24T08:36:25.088Z,93.48
2017-10-24T08:38:54.148Z,94.41
2017-10-24T08:41:21.675Z,93.03
2017-10-24T08:43:50.015Z,93.29
2017-10-24T08:46:17.573Z,93.74
2017-10-24T08:48:45.941Z,92.71
2017-10-24T08:51:14.172Z,92.14
2017-10-24T08:53:41.792Z,93.20
2017-10-24T08:56:09.333Z,92.36
2017-10-24T08:58:37.763Z,92.88
2017-10-24T09:01:06.316Z,91.83
2017-10-24T09:03:33.875Z,92.24
2017-10-24T09:06:18.336Z,91.68
2017-10-24T09:12:10.324Z,92.35
2017-10-24T09:14:39.623Z,93.26
2017-10-24T09:20:08.509Z,91.44
2017-10-24T09:22:36.084Z,92.80
2017-10-24T09:25:03.621Z,92.20
2017-10-24T09:27:31.208Z,91.77
2017-10-24T09:29:59.676Z,91.09
2017-10-24T09:32:29.733Z,90.87
2017-10-24T09:34:58.269Z,88.46
2017-10-24T09:37:25.799Z,88.61
2017-10-24T09:39:53.360Z,88.43
2017-10-24T09:42:20.950Z,89.29
2017-10-24T09:44:48.483Z,87.85
2017-10-24T09:47:16.074Z,89.32
2017-10-24T09:49:55.461Z,90.25
2017-10-24T09:52:23.005Z,88.47
2017-10-24T09:54:50.536Z,87.75
2017-10-24T09:57:18.077Z,89.13
2017-10-24T09:59:46.325Z,88.64
2017-10-24T10:02:13.862Z,87.71
2017-10-24T10:04:41.392Z,87.81
2017-10-24T10:07:09.712Z,88.35
2017-10-24T10:09:37.260Z,86.45
2017-10-24T10:12:04.887Z,87.81
2017-10-24T10:14:32.448Z,88.96
2017-10-24T10:16:59.981Z,89.28
2017-10-24T10:19:27.512Z,89.20
2017-10-24T10:21:55.134Z,87.12
2017-10-24T10:24:30.367Z,87.12
2017-10-24T10:26:58.644Z,86.98
2017-10-24T10:29:26.171Z,87.56
2017-10-24T10:31:53.699Z,87.85
2017-10-24T10:34:21.244Z,86.12
2017-10-24T10:36:49.766Z,86.66
2017-10-24T10:39:17.369Z,86.93
2017-10-24T10:41:44.907Z,85.14
2017-10-24T10:44:12.494Z,87.81
2017-10-24T10:46:40.055Z,87.38
2017-10-24T10:49:07.596Z,86.48
2017-10-24T10:51:35.920Z,85.99
2017-10-24T10:54:03.461Z,88.16
2017-10-24T10:56:30.993Z,87.39
2017-10-24T10:58:58.575Z,87.39
2017-10-24T11:01:26.114Z,88.17
2017-10-24T11:03:54.518Z,88.96
2017-10-24T11:06:22.068Z,87.47
2017-10-24T11:08:49.627Z,88.53
2017-10-24T11:11:17.201Z,86.18
2017-10-24T11:13:44.728Z,87.44
2017-10-24T11:16:13.296Z,85.90
2017-10-24T11:18:41.533Z,85.39
2017-10-24T11:21:09.978Z,84.89
2017-10-24T11:23:37.708Z,85.59
2017-10-24T11:26:05.236Z,84.99
2017-10-24T11:28:32.778Z,84.32
2017-10-24T11:31:00.306Z,86.16
2017-10-24T11:33:27.852Z,86.17
2017-10-24T11:35:55.388Z,84.83
2017-10-24T11:38:22.921Z,85.05
2017-10-24T11:40:50.457Z,85.01
2017-10-24T11:43:17.988Z,86.43
2017-10-24T11:45:45.571Z,84.30
2017-10-24T11:48:13.154Z,84.94
2017-10-24T11:50:40.684Z,86.28
2017-10-24T11:53:09.299Z,84.04
2017-10-24T11:55:36.849Z,85.01
2017-10-24T11:58:04.433Z,83.60
2017-10-24T12:00:31.985Z,83.74
2017-10-24T12:02:59.542Z,84.50
2017-10-24T12:05:27.072Z,84.59
2017-10-24T12:07:54.657Z,83.16
2017-10-24T12:10:22.230Z,82.82
2017-10-24T12:12:49.801Z,83.80
2017-10-24T12:15:17.376Z,84.61
2017-10-24T12:17:45.812Z,83.35
2017-10-24T12:20:13.929Z,83.27
2017-10-24T12:22:41.563Z,84.28
2017-10-24T12:25:10.042Z,84.02
2017-10-24T12:27:37.851Z,82.50
2017-10-24T12:30:05.432Z,84.75
2017-10-24T12:32:32.967Z,83.54
2017-10-24T12:35:00.497Z,84.00
2017-10-24T12:37:28.060Z,79.78
2017-10-24T12:39:55.596Z,80.35
2017-10-24T12:42:23.448Z,82.45
2017-10-24T12:45:00.872Z,80.60
2017-10-24T12:47:28.400Z,80.50
2017-10-24T12:53:05.873Z,79.83
2017-10-24T12:55:33.405Z,80.33
2017-10-24T12:58:01.245Z,81.86
2017-10-24T13:00:28.772Z,81.84
2017-10-24T13:02:56.304Z,81.74
2017-10-24T13:05:26.227Z,82.98
2017-10-24T13:07:54.521Z,80.49
2017-10-24T13:10:22.556Z,80.72
2017-10-24T13:12:50.080Z,81.68
2017-10-24T13:15:17.859Z,81.83
2017-10-24T13:17:46.250Z,81.82
2017-10-24T13:20:14.749Z,80.85
2017-10-24T13:22:43.016Z,80.22
2017-10-24T13:25:10.586Z,79.72
2017-10-24T13:27:38.122Z,80.22
2017-10-24T13:30:06.433Z,80.64
2017-10-24T13:32:35.046Z,81.48
2017-10-24T13:35:03.474Z,80.34
2017-10-24T13:37:31.041Z,80.89
2017-10-24T13:39:59.513Z,81.13
2017-10-24T13:42:28.111Z,81.33
2017-10-24T13:44:55.636Z,81.93
2017-10-24T13:47:24.053Z,81.96
2017-10-24T13:49:52.600Z,83.27
2017-10-24T13:52:20.950Z,81.84
2017-10-24T13:54:48.529Z,81.63
2017-10-24T13:57:16.061Z,80.87
2017-10-24T13:59:43.592Z,82.19
2017-10-24T14:02:11.123Z,81.70
2017-10-24T14:04:44.332Z,82.81
2017-10-24T20:44:29.684Z,91.45
2017-10-24T20:46:58.272Z,91.29
2017-10-24T20:49:26.699Z,91.05
2017-10-24T20:51:54.230Z,91.08
2017-10-24T20:54:21.762Z,91.19
2017-10-24T20:56:49.335Z,90.49
2017-10-24T20:59:17.800Z,90.08
2017-10-24T21:01:46.246Z,90.95
2017-10-24T21:04:14.692Z,90.43
2017-10-24T21:06:42.228Z,90.79
2017-10-24T21:09:10.654Z,90.86
2017-10-24T21:11:38.309Z,90.50
2017-10-24T21:14:05.878Z,90.66
2017-10-24T21:16:33.432Z,90.38
2017-10-24T21:19:01.849Z,90.43
2017-10-24T21:21:29.381Z,90.35
2017-10-24T21:23:57.652Z,90.45
2017-10-24T21:26:25.312Z,90.32
2017-10-24T21:28:52.871Z,89.99
2017-10-24T21:31:20.388Z,90.55
2017-10-24T21:33:47.912Z,90.66
2017-10-24T21:36:17.506Z,90.67
2017-10-24T21:38:45.836Z,90.80
2017-10-24T21:41:13.440Z,90.78
2017-10-24T21:43:41.654Z,91.20
2017-10-24T21:46:10.273Z,91.12
2017-10-24T21:48:37.801Z,90.70
2017-10-24T21:51:05.420Z,91.34
2017-10-24T21:53:33.709Z,91.06
2017-10-24T21:56:01.227Z,91.03
2017-10-24T21:58:28.752Z,91.06
2017-10-24T22:00:56.380Z,90.97
2017-10-24T22:03:24.658Z,90.44
2017-10-24T22:05:52.223Z,90.91
2017-10-24T22:08:19.784Z,91.19
2017-10-24T22:10:47.341Z,90.91
2017-10-24T22:13:14.868Z,91.08
2017-10-24T22:15:42.428Z,90.34
2017-10-24T22:18:10.360Z,90.82
2017-10-24T22:20:37.883Z,91.04
2017-10-24T22:23:05.452Z,91.18
2017-10-24T22:25:33.013Z,91.05
2017-10-24T22:28:00.575Z,91.04
2017-10-24T22:30:28.132Z,90.99
2017-10-24T22:32:56.509Z,90.51
2017-10-24T22:35:24.067Z,90.71
2017-10-24T22:37:53.072Z,90.94
2017-10-24T22:40:20.729Z,90.71
2017-10-24T22:42:48.262Z,90.80
2017-10-24T22:45:15.784Z,91.74
2017-10-24T22:47:44.086Z,91.79
2017-10-24T22:50:11.608Z,92.07
2017-10-24T22:52:39.340Z,92.10
2017-10-24T22:55:06.907Z,92.16
2017-10-24T22:57:34.466Z,92.69
2017-10-24T23:00:02.628Z,92.90
2017-10-24T23:02:30.200Z,93.13
2017-10-24T23:04:57.769Z,92.96
2017-10-24T23:07:26.161Z,92.71
2017-10-24T23:09:53.703Z,93.19
2017-10-24T23:12:21.364Z,93.75
2017-10-24T23:14:48.896Z,94.21
2017-10-24T23:17:17.280Z,94.34
2017-10-24T23:19:44.809Z,94.25
2017-10-24T23:22:12.331Z,94.51
2017-10-24T23:24:39.861Z,94.48
2017-10-24T23:27:07.448Z,94.63
2017-10-24T23:29:35.213Z,94.57
2017-10-24T23:32:02.746Z,94.80
2017-10-24T23:34:31.644Z,94.69
2017-10-24T23:36:59.223Z,94.97
2017-10-24T23:39:27.744Z,94.87
2017-10-24T23:41:55.367Z,94.97
2017-10-24T23:44:22.928Z,94.84
2017-10-24T23:46:50.455Z,94.94
2017-10-24T23:49:18.667Z,94.88
2017-10-24T23:51:46.193Z,95.32
2017-10-24T23:54:14.607Z,95.12
2017-10-24T23:56:42.267Z,95.81
2017-10-24T23:59:09.829Z,96.28
